sensor_id;sensor_type;location;lat;lon;timestamp;P1;durP1;ratioP1;P2;durP2;ratioP2
29876;SDS011;16750;49.002;9.204;2022-09-03T00:01:37;1.95;;;0.80;;
29876;SDS011;16750;49.002;9.204;2022-09-03T00:04:16;2.42;;;0.80;;
29876;SDS011;16750;49.002;9.204;2022-09-03T00:06:50;2.78;;;1.00;;
29876;SDS011;16750;49.002;9.204;2022-09-03T00:09:33;1.88;;;1.00;;
29876;SDS011;16750;49.002;9.204;2022-09-03T00:12:13;1.70;;;0.98;;
29876;SDS011;16750;49.002;9.204;2022-09-03T00:14:49;2.78;;;1.00;;
29876;SDS011;16750;49.002;9.204;2022-09-03T00:17:21;3.20;;;1.08;;
29876;SDS011;16750;49.002;9.204;2022-09-03T00:19:53;2.40;;;0.80;;
29876;SDS011;16750;49.002;9.204;2022-09-03T00:22:32;1.88;;;0.90;;
29876;SDS011;16750;49.002;9.204;2022-09-03T00:28:53;2.95;;;0.80;;
29876;SDS011;16750;49.002;9.204;2022-09-03T00:34:09;1.70;;;0.85;;
29876;SDS011;16750;49.002;9.204;2022-09-03T00:36:40;2.72;;;1.20;;
29876;SDS011;16750;49.002;9.204;2022-09-03T00:39:15;3.75;;;1.10;;
29876;SDS011;16750;49.002;9.204;2022-09-03T00:44:45;1.95;;;1.00;;
29876;SDS011;16750;49.002;9.204;2022-09-03T00:50:14;2.42;;;1.00;;
29876;SDS011;16750;49.002;9.204;2022-09-03T01:01:00;3.28;;;0.98;;
29876;SDS011;16750;49.002;9.204;2022-09-03T01:07:12;1.45;;;0.80;;
29876;SDS011;16750;49.002;9.204;2022-09-03T01:12:10;2.25;;;0.90;;
29876;SDS011;16750;49.002;9.204;2022-09-03T01:14:50;1.50;;;0.88;;
29876;SDS011;16750;49.002;9.204;2022-09-03T01:23:04;2.60;;;1.02;;
29876;SDS011;16750;49.002;9.204;2022-09-03T01:25:51;2.13;;;0.80;;
29876;SDS011;16750;49.002;9.204;2022-09-03T01:34:47;1.77;;;0.90;;
29876;SDS011;16750;49.002;9.204;2022-09-03T01:45:21;1.20;;;0.82;;
29876;SDS011;16750;49.002;9.204;2022-09-03T01:48:02;2.73;;;0.90;;
29876;SDS011;16750;49.002;9.204;2022-09-03T01:50:36;1.42;;;0.90;;
29876;SDS011;16750;49.002;9.204;2022-09-03T01:58:17;2.65;;;0.82;;
29876;SDS011;16750;49.002;9.204;2022-09-03T02:00:52;1.55;;;0.73;;
29876;SDS011;16750;49.002;9.204;2022-09-03T02:03:23;1.55;;;0.80;;
29876;SDS011;16750;49.002;9.204;2022-09-03T02:05:57;1.63;;;0.82;;
29876;SDS011;16750;49.002;9.204;2022-09-03T02:08:23;1.70;;;0.90;;
29876;SDS011;16750;49.002;9.204;2022-09-03T02:10:51;1.65;;;0.73;;
29876;SDS011;16750;49.002;9.204;2022-09-03T02:13:29;3.35;;;1.00;;
29876;SDS011;16750;49.002;9.204;2022-09-03T02:16:01;2.00;;;0.80;;
29876;SDS011;16750;49.002;9.204;2022-09-03T02:18:39;2.15;;;1.00;;
29876;SDS011;16750;49.002;9.204;2022-09-03T02:21:08;2.80;;;1.00;;
29876;SDS011;16750;49.002;9.204;2022-09-03T02:23:34;2.15;;;0.80;;
29876;SDS011;16750;49.002;9.204;2022-09-03T02:26:03;1.80;;;0.95;;
29876;SDS011;16750;49.002;9.204;2022-09-03T02:28:31;2.97;;;0.90;;
29876;SDS011;16750;49.002;9.204;2022-09-03T02:30:57;1.02;;;0.80;;
29876;SDS011;16750;49.002;9.204;2022-09-03T02:33:22;4.03;;;1.17;;
29876;SDS011;16750;49.002;9.204;2022-09-03T02:35:48;4.20;;;1.00;;
29876;SDS011;16750;49.002;9.204;2022-09-03T02:38:15;1.98;;;1.20;;
29876;SDS011;16750;49.002;9.204;2022-09-03T02:40:43;1.60;;;0.93;;
29876;SDS011;16750;49.002;9.204;2022-09-03T02:43:20;1.38;;;0.80;;
29876;SDS011;16750;49.002;9.204;2022-09-03T02:45:52;2.20;;;0.90;;
29876;SDS011;16750;49.002;9.204;2022-09-03T02:48:22;3.67;;;0.90;;
29876;SDS011;16750;49.002;9.204;2022-09-03T02:50:48;2.13;;;0.80;;
29876;SDS011;16750;49.002;9.204;2022-09-03T02:53:14;2.95;;;1.00;;
29876;SDS011;16750;49.002;9.204;2022-09-03T02:55:40;2.40;;;1.20;;
29876;SDS011;16750;49.002;9.204;2022-09-03T02:58:06;2.40;;;0.90;;
29876;SDS011;16750;49.002;9.204;2022-09-03T03:00:32;2.42;;;0.90;;
29876;SDS011;16750;49.002;9.204;2022-09-03T03:03:00;2.45;;;0.80;;
29876;SDS011;16750;49.002;9.204;2022-09-03T03:08:14;3.17;;;0.90;;
29876;SDS011;16750;49.002;9.204;2022-09-03T03:10:41;1.77;;;1.00;;
29876;SDS011;16750;49.002;9.204;2022-09-03T03:13:10;1.08;;;0.63;;
29876;SDS011;16750;49.002;9.204;2022-09-03T03:15:36;2.35;;;0.70;;
29876;SDS011;16750;49.002;9.204;2022-09-03T03:18:02;1.67;;;0.95;;
29876;SDS011;16750;49.002;9.204;2022-09-03T03:20:27;1.63;;;0.85;;
29876;SDS011;16750;49.002;9.204;2022-09-03T03:22:53;2.25;;;1.00;;
29876;SDS011;16750;49.002;9.204;2022-09-03T03:25:18;2.05;;;0.98;;
29876;SDS011;16750;49.002;9.204;2022-09-03T03:27:44;2.45;;;0.90;;
29876;SDS011;16750;49.002;9.204;2022-09-03T03:30:10;1.63;;;0.75;;
29876;SDS011;16750;49.002;9.204;2022-09-03T03:32:36;3.13;;;0.90;;
29876;SDS011;16750;49.002;9.204;2022-09-03T03:35:02;0.93;;;0.70;;
29876;SDS011;16750;49.002;9.204;2022-09-03T03:37:29;1.88;;;0.80;;
29876;SDS011;16750;49.002;9.204;2022-09-03T03:39:55;4.28;;;0.80;;
29876;SDS011;16750;49.002;9.204;2022-09-03T03:42:21;1.55;;;0.90;;
29876;SDS011;16750;49.002;9.204;2022-09-03T03:44:47;3.05;;;0.90;;
29876;SDS011;16750;49.002;9.204;2022-09-03T03:47:12;2.17;;;0.90;;
29876;SDS011;16750;49.002;9.204;2022-09-03T03:49:40;2.08;;;1.00;;
29876;SDS011;16750;49.002;9.204;2022-09-03T03:52:06;1.52;;;0.80;;
29876;SDS011;16750;49.002;9.204;2022-09-03T03:54:32;1.98;;;0.80;;
29876;SDS011;16750;49.002;9.204;2022-09-03T03:56:57;2.10;;;0.80;;
29876;SDS011;16750;49.002;9.204;2022-09-03T03:59:22;2.05;;;0.77;;
29876;SDS011;16750;49.002;9.204;2022-09-03T04:01:48;2.22;;;1.00;;
29876;SDS011;16750;49.002;9.204;2022-09-03T04:04:14;3.80;;;1.00;;
29876;SDS011;16750;49.002;9.204;2022-09-03T04:06:40;4.25;;;0.95;;
29876;SDS011;16750;49.002;9.204;2022-09-03T04:09:05;2.00;;;0.90;;
29876;SDS011;16750;49.002;9.204;2022-09-03T04:11:33;2.00;;;1.05;;
29876;SDS011;16750;49.002;9.204;2022-09-03T04:14:01;1.80;;;0.88;;
29876;SDS011;16750;49.002;9.204;2022-09-03T04:16:27;2.88;;;0.90;;
29876;SDS011;16750;49.002;9.204;2022-09-03T04:18:54;3.13;;;0.90;;
29876;SDS011;16750;49.002;9.204;2022-09-03T04:21:21;2.55;;;0.82;;
29876;SDS011;16750;49.002;9.204;2022-09-03T04:23:48;1.48;;;0.90;;
29876;SDS011;16750;49.002;9.204;2022-09-03T04:26:19;2.05;;;0.90;;
29876;SDS011;16750;49.002;9.204;2022-09-03T04:28:46;4.93;;;1.00;;
29876;SDS011;16750;49.002;9.204;2022-09-03T04:31:12;2.90;;;1.00;;
29876;SDS011;16750;49.002;9.204;2022-09-03T04:33:39;2.20;;;0.80;;
29876;SDS011;16750;49.002;9.204;2022-09-03T04:36:10;1.25;;;0.80;;
29876;SDS011;16750;49.002;9.204;2022-09-03T04:38:36;1.75;;;0.73;;
29876;SDS011;16750;49.002;9.204;2022-09-03T04:41:04;1.98;;;1.10;;
29876;SDS011;16750;49.002;9.204;2022-09-03T04:43:31;1.88;;;0.93;;
29876;SDS011;16750;49.002;9.204;2022-09-03T04:45:59;3.03;;;0.90;;
29876;SDS011;16750;49.002;9.204;2022-09-03T04:48:29;2.40;;;0.90;;
29876;SDS011;16750;49.002;9.204;2022-09-03T04:51:00;3.83;;;1.00;;
29876;SDS011;16750;49.002;9.204;2022-09-03T04:53:31;1.40;;;0.80;;
29876;SDS011;16750;49.002;9.204;2022-09-03T04:55:57;2.00;;;1.00;;
29876;SDS011;16750;49.002;9.204;2022-09-03T04:58:22;3.03;;;0.88;;
29876;SDS011;16750;49.002;9.204;2022-09-03T05:00:48;1.55;;;0.80;;
29876;SDS011;16750;49.002;9.204;2022-09-03T05:03:14;2.65;;;0.98;;
29876;SDS011;16750;49.002;9.204;2022-09-03T05:05:39;1.70;;;0.98;;
29876;SDS011;16750;49.002;9.204;2022-09-03T05:08:04;2.60;;;0.90;;
29876;SDS011;16750;49.002;9.204;2022-09-03T05:10:31;2.05;;;0.73;;
29876;SDS011;16750;49.002;9.204;2022-09-03T05:12:57;1.80;;;0.80;;
29876;SDS011;16750;49.002;9.204;2022-09-03T05:15:24;2.20;;;1.10;;
29876;SDS011;16750;49.002;9.204;2022-09-03T05:17:54;6.18;;;1.20;;
29876;SDS011;16750;49.002;9.204;2022-09-03T05:20:20;2.42;;;0.90;;
29876;SDS011;16750;49.002;9.204;2022-09-03T05:22:47;2.75;;;0.98;;
29876;SDS011;16750;49.002;9.204;2022-09-03T05:25:12;2.30;;;0.90;;
29876;SDS011;16750;49.002;9.204;2022-09-03T05:27:37;3.78;;;1.00;;
29876;SDS011;16750;49.002;9.204;2022-09-03T05:30:03;4.15;;;1.10;;
29876;SDS011;16750;49.002;9.204;2022-09-03T05:32:29;2.90;;;1.00;;
29876;SDS011;16750;49.002;9.204;2022-09-03T05:34:55;1.92;;;0.90;;
29876;SDS011;16750;49.002;9.204;2022-09-03T05:37:20;1.70;;;0.98;;
29876;SDS011;16750;49.002;9.204;2022-09-03T05:39:47;1.80;;;1.00;;
29876;SDS011;16750;49.002;9.204;2022-09-03T05:42:13;1.75;;;1.00;;
29876;SDS011;16750;49.002;9.204;2022-09-03T05:44:39;1.67;;;0.90;;
29876;SDS011;16750;49.002;9.204;2022-09-03T05:47:05;3.13;;;0.90;;
29876;SDS011;16750;49.002;9.204;2022-09-03T05:49:30;1.73;;;0.90;;
29876;SDS011;16750;49.002;9.204;2022-09-03T05:52:02;2.35;;;1.10;;
29876;SDS011;16750;49.002;9.204;2022-09-03T05:54:28;3.20;;;1.00;;
29876;SDS011;16750;49.002;9.204;2022-09-03T05:56:53;2.67;;;1.20;;
29876;SDS011;16750;49.002;9.204;2022-09-03T05:59:18;2.67;;;1.20;;
29876;SDS011;16750;49.002;9.204;2022-09-03T06:01:44;3.40;;;1.10;;
29876;SDS011;16750;49.002;9.204;2022-09-03T06:04:11;2.05;;;1.20;;
29876;SDS011;16750;49.002;9.204;2022-09-03T06:06:39;2.70;;;1.38;;
29876;SDS011;16750;49.002;9.204;2022-09-03T06:09:13;2.05;;;1.00;;
29876;SDS011;16750;49.002;9.204;2022-09-03T06:11:42;3.05;;;1.35;;
29876;SDS011;16750;49.002;9.204;2022-09-03T06:14:09;2.97;;;1.30;;
29876;SDS011;16750;49.002;9.204;2022-09-03T06:16:37;3.65;;;1.50;;
29876;SDS011;16750;49.002;9.204;2022-09-03T06:19:05;3.53;;;1.10;;
29876;SDS011;16750;49.002;9.204;2022-09-03T06:21:33;2.08;;;1.20;;
29876;SDS011;16750;49.002;9.204;2022-09-03T06:24:00;2.10;;;1.17;;
29876;SDS011;16750;49.002;9.204;2022-09-03T06:26:27;3.03;;;1.17;;
29876;SDS011;16750;49.002;9.204;2022-09-03T06:28:53;2.25;;;1.10;;
29876;SDS011;16750;49.002;9.204;2022-09-03T06:31:20;3.03;;;1.10;;
29876;SDS011;16750;49.002;9.204;2022-09-03T06:33:47;3.03;;;1.20;;
29876;SDS011;16750;49.002;9.204;2022-09-03T06:36:14;3.42;;;1.17;;
29876;SDS011;16750;49.002;9.204;2022-09-03T06:38:43;4.00;;;1.50;;
29876;SDS011;16750;49.002;9.204;2022-09-03T06:43:37;5.10;;;1.25;;
29876;SDS011;16750;49.002;9.204;2022-09-03T06:46:06;4.35;;;1.13;;
29876;SDS011;16750;49.002;9.204;2022-09-03T06:48:37;2.13;;;1.15;;
29876;SDS011;16750;49.002;9.204;2022-09-03T06:53:34;6.18;;;1.50;;
29876;SDS011;16750;49.002;9.204;2022-09-03T06:56:03;7.70;;;1.63;;
29876;SDS011;16750;49.002;9.204;2022-09-03T06:58:35;5.32;;;1.42;;
29876;SDS011;16750;49.002;9.204;2022-09-03T07:01:06;3.83;;;1.50;;
29876;SDS011;16750;49.002;9.204;2022-09-03T07:03:34;3.33;;;1.60;;
29876;SDS011;16750;49.002;9.204;2022-09-03T07:06:03;4.45;;;1.38;;
29876;SDS011;16750;49.002;9.204;2022-09-03T07:08:30;7.38;;;1.50;;
29876;SDS011;16750;49.002;9.204;2022-09-03T07:11:00;4.20;;;1.48;;
29876;SDS011;16750;49.002;9.204;2022-09-03T07:13:34;5.22;;;1.40;;
29876;SDS011;16750;49.002;9.204;2022-09-03T07:16:06;5.15;;;1.70;;
29876;SDS011;16750;49.002;9.204;2022-09-03T07:18:36;2.85;;;1.48;;
29876;SDS011;16750;49.002;9.204;2022-09-03T07:21:03;4.47;;;1.77;;
29876;SDS011;16750;49.002;9.204;2022-09-03T07:23:32;4.70;;;1.58;;
29876;SDS011;16750;49.002;9.204;2022-09-03T07:25:59;5.20;;;1.60;;
29876;SDS011;16750;49.002;9.204;2022-09-03T07:28:27;4.85;;;1.60;;
29876;SDS011;16750;49.002;9.204;2022-09-03T07:30:59;4.35;;;1.40;;
29876;SDS011;16750;49.002;9.204;2022-09-03T07:33:27;3.28;;;1.58;;
29876;SDS011;16750;49.002;9.204;2022-09-03T07:35:54;3.35;;;1.60;;
29876;SDS011;16750;49.002;9.204;2022-09-03T07:38:20;4.47;;;1.73;;
29876;SDS011;16750;49.002;9.204;2022-09-03T07:40:55;3.90;;;1.60;;
29876;SDS011;16750;49.002;9.204;2022-09-03T07:43:23;4.93;;;1.60;;
29876;SDS011;16750;49.002;9.204;2022-09-03T07:45:51;3.55;;;1.58;;
29876;SDS011;16750;49.002;9.204;2022-09-03T07:48:19;4.32;;;1.80;;
29876;SDS011;16750;49.002;9.204;2022-09-03T07:50:45;6.13;;;1.80;;
29876;SDS011;16750;49.002;9.204;2022-09-03T07:53:12;4.10;;;1.63;;
29876;SDS011;16750;49.002;9.204;2022-09-03T07:55:37;6.65;;;1.50;;
29876;SDS011;16750;49.002;9.204;2022-09-03T07:58:03;6.53;;;2.28;;
29876;SDS011;16750;49.002;9.204;2022-09-03T08:00:28;3.78;;;1.63;;
29876;SDS011;16750;49.002;9.204;2022-09-03T08:02:57;3.72;;;1.75;;
29876;SDS011;16750;49.002;9.204;2022-09-03T08:05:28;4.85;;;1.50;;
29876;SDS011;16750;49.002;9.204;2022-09-03T08:07:53;5.78;;;1.80;;
29876;SDS011;16750;49.002;9.204;2022-09-03T08:10:18;6.05;;;2.45;;
29876;SDS011;16750;49.002;9.204;2022-09-03T08:12:44;4.53;;;1.70;;
29876;SDS011;16750;49.002;9.204;2022-09-03T08:15:09;4.82;;;1.80;;
29876;SDS011;16750;49.002;9.204;2022-09-03T08:17:35;5.93;;;1.67;;
29876;SDS011;16750;49.002;9.204;2022-09-03T08:20:01;4.43;;;1.50;;
29876;SDS011;16750;49.002;9.204;2022-09-03T08:22:27;4.45;;;1.60;;
29876;SDS011;16750;49.002;9.204;2022-09-03T08:24:52;4.57;;;1.35;;
29876;SDS011;16750;49.002;9.204;2022-09-03T08:27:19;3.08;;;1.30;;
29876;SDS011;16750;49.002;9.204;2022-09-03T08:29:50;3.58;;;1.40;;
29876;SDS011;16750;49.002;9.204;2022-09-03T08:32:15;3.58;;;1.63;;
29876;SDS011;16750;49.002;9.204;2022-09-03T08:34:40;3.58;;;1.63;;
29876;SDS011;16750;49.002;9.204;2022-09-03T08:37:06;4.75;;;1.90;;
29876;SDS011;16750;49.002;9.204;2022-09-03T08:39:33;5.88;;;1.58;;
29876;SDS011;16750;49.002;9.204;2022-09-03T08:45:01;4.13;;;1.50;;
29876;SDS011;16750;49.002;9.204;2022-09-03T08:47:36;4.53;;;1.45;;
29876;SDS011;16750;49.002;9.204;2022-09-03T08:52:49;6.78;;;1.70;;
29876;SDS011;16750;49.002;9.204;2022-09-03T08:58:13;2.10;;;1.40;;
29876;SDS011;16750;49.002;9.204;2022-09-03T09:08:47;4.55;;;1.65;;
29876;SDS011;16750;49.002;9.204;2022-09-03T09:11:39;10.98;;;2.38;;
29876;SDS011;16750;49.002;9.204;2022-09-03T09:14:26;3.67;;;1.73;;
29876;SDS011;16750;49.002;9.204;2022-09-03T09:22:46;2.15;;;1.38;;
29876;SDS011;16750;49.002;9.204;2022-09-03T09:25:17;2.97;;;1.27;;
29876;SDS011;16750;49.002;9.204;2022-09-03T09:30:20;4.50;;;1.55;;
29876;SDS011;16750;49.002;9.204;2022-09-03T09:32:45;3.85;;;1.50;;
29876;SDS011;16750;49.002;9.204;2022-09-03T09:35:14;4.45;;;1.42;;
29876;SDS011;16750;49.002;9.204;2022-09-03T09:37:46;4.60;;;1.60;;
29876;SDS011;16750;49.002;9.204;2022-09-03T09:40:32;4.13;;;1.40;;
29876;SDS011;16750;49.002;9.204;2022-09-03T09:43:06;3.95;;;1.33;;
29876;SDS011;16750;49.002;9.204;2022-09-03T09:45:34;2.60;;;1.38;;
29876;SDS011;16750;49.002;9.204;2022-09-03T09:48:01;7.18;;;1.70;;
29876;SDS011;16750;49.002;9.204;2022-09-03T09:50:32;3.78;;;1.55;;
29876;SDS011;16750;49.002;9.204;2022-09-03T09:53:06;4.53;;;1.55;;
29876;SDS011;16750;49.002;9.204;2022-09-03T09:55:51;5.00;;;1.90;;
29876;SDS011;16750;49.002;9.204;2022-09-03T09:58:19;3.70;;;1.48;;
29876;SDS011;16750;49.002;9.204;2022-09-03T10:00:54;3.80;;;1.65;;
29876;SDS011;16750;49.002;9.204;2022-09-03T10:03:21;2.58;;;1.45;;
29876;SDS011;16750;49.002;9.204;2022-09-03T10:05:56;3.53;;;1.50;;
29876;SDS011;16750;49.002;9.204;2022-09-03T10:08:25;5.70;;;1.48;;
29876;SDS011;16750;49.002;9.204;2022-09-03T10:10:51;4.45;;;1.63;;
29876;SDS011;16750;49.002;9.204;2022-09-03T10:13:24;3.25;;;1.52;;
29876;SDS011;16750;49.002;9.204;2022-09-03T10:15:57;3.72;;;1.70;;
29876;SDS011;16750;49.002;9.204;2022-09-03T10:21:11;4.60;;;1.50;;
29876;SDS011;16750;49.002;9.204;2022-09-03T10:26:29;4.65;;;1.50;;
29876;SDS011;16750;49.002;9.204;2022-09-03T10:28:57;6.65;;;1.67;;
29876;SDS011;16750;49.002;9.204;2022-09-03T10:39:48;6.13;;;1.60;;
29876;SDS011;16750;49.002;9.204;2022-09-03T10:47:49;2.47;;;1.50;;
29876;SDS011;16750;49.002;9.204;2022-09-03T10:51:33;3.30;;;1.40;;
29876;SDS011;16750;49.002;9.204;2022-09-03T10:56:12;4.55;;;1.80;;
29876;SDS011;16750;49.002;9.204;2022-09-03T10:58:49;4.72;;;1.70;;
29876;SDS011;16750;49.002;9.204;2022-09-03T11:09:18;4.03;;;1.70;;
29876;SDS011;16750;49.002;9.204;2022-09-03T11:11:56;1.98;;;1.40;;
29876;SDS011;16750;49.002;9.204;2022-09-03T11:14:33;4.40;;;1.58;;
29876;SDS011;16750;49.002;9.204;2022-09-03T11:17:08;4.22;;;1.85;;
29876;SDS011;16750;49.002;9.204;2022-09-03T11:22:12;3.70;;;1.60;;
29876;SDS011;16750;49.002;9.204;2022-09-03T11:24:42;3.50;;;2.05;;
29876;SDS011;16750;49.002;9.204;2022-09-03T11:27:17;4.72;;;1.92;;
29876;SDS011;16750;49.002;9.204;2022-09-03T11:37:59;2.88;;;1.40;;
29876;SDS011;16750;49.002;9.204;2022-09-03T11:40:33;2.33;;;1.50;;
29876;SDS011;16750;49.002;9.204;2022-09-03T11:43:04;3.35;;;1.73;;
29876;SDS011;16750;49.002;9.204;2022-09-03T11:45:48;5.07;;;1.67;;
29876;SDS011;16750;49.002;9.204;2022-09-03T11:48:29;3.33;;;1.67;;
29876;SDS011;16750;49.002;9.204;2022-09-03T11:51:29;4.20;;;1.60;;
29876;SDS011;16750;49.002;9.204;2022-09-03T11:54:03;2.60;;;1.50;;
29876;SDS011;16750;49.002;9.204;2022-09-03T11:56:29;4.88;;;1.67;;
29876;SDS011;16750;49.002;9.204;2022-09-03T12:01:41;3.83;;;1.50;;
29876;SDS011;16750;49.002;9.204;2022-09-03T12:04:12;2.60;;;1.40;;
29876;SDS011;16750;49.002;9.204;2022-09-03T12:20:37;3.17;;;1.58;;
29876;SDS011;16750;49.002;9.204;2022-09-03T12:23:04;4.68;;;1.60;;
29876;SDS011;16750;49.002;9.204;2022-09-03T12:25:29;3.30;;;1.52;;
29876;SDS011;16750;49.002;9.204;2022-09-03T12:27:54;2.53;;;1.50;;
29876;SDS011;16750;49.002;9.204;2022-09-03T12:30:21;2.10;;;1.67;;
29876;SDS011;16750;49.002;9.204;2022-09-03T12:32:48;5.45;;;1.45;;
29876;SDS011;16750;49.002;9.204;2022-09-03T12:35:16;3.97;;;1.40;;
29876;SDS011;16750;49.002;9.204;2022-09-03T12:37:42;2.28;;;1.40;;
29876;SDS011;16750;49.002;9.204;2022-09-03T12:40:18;2.67;;;1.60;;
29876;SDS011;16750;49.002;9.204;2022-09-03T12:42:54;3.25;;;1.63;;
29876;SDS011;16750;49.002;9.204;2022-09-03T12:45:40;3.63;;;1.80;;
29876;SDS011;16750;49.002;9.204;2022-09-03T12:48:15;4.82;;;1.48;;
29876;SDS011;16750;49.002;9.204;2022-09-03T12:50:42;4.80;;;1.80;;
29876;SDS011;16750;49.002;9.204;2022-09-03T12:53:10;2.63;;;1.40;;
29876;SDS011;16750;49.002;9.204;2022-09-03T13:03:30;4.03;;;1.88;;
29876;SDS011;16750;49.002;9.204;2022-09-03T13:06:23;2.22;;;1.50;;
29876;SDS011;16750;49.002;9.204;2022-09-03T13:08:58;3.33;;;1.85;;
29876;SDS011;16750;49.002;9.204;2022-09-03T13:11:26;3.03;;;1.60;;
29876;SDS011;16750;49.002;9.204;2022-09-03T13:40:53;3.25;;;1.02;;
29876;SDS011;16750;49.002;9.204;2022-09-03T13:46:12;3.22;;;1.30;;
29876;SDS011;16750;49.002;9.204;2022-09-03T13:48:42;2.53;;;1.40;;
29876;SDS011;16750;49.002;9.204;2022-09-03T13:56:58;3.55;;;1.20;;
29876;SDS011;16750;49.002;9.204;2022-09-03T14:03:02;3.13;;;1.83;;
29876;SDS011;16750;49.002;9.204;2022-09-03T14:22:42;2.58;;;1.55;;
29876;SDS011;16750;49.002;9.204;2022-09-03T14:25:10;1.97;;;1.47;;
29876;SDS011;16750;49.002;9.204;2022-09-03T14:27:39;3.13;;;1.60;;
29876;SDS011;16750;49.002;9.204;2022-09-03T14:30:06;3.17;;;1.40;;
29876;SDS011;16750;49.002;9.204;2022-09-03T14:38:24;2.85;;;1.70;;
29876;SDS011;16750;49.002;9.204;2022-09-03T14:41:00;4.45;;;2.20;;
29876;SDS011;16750;49.002;9.204;2022-09-03T14:43:40;4.70;;;1.80;;
29876;SDS011;16750;49.002;9.204;2022-09-03T15:01:09;6.78;;;1.92;;
29876;SDS011;16750;49.002;9.204;2022-09-03T15:09:10;3.67;;;1.52;;
29876;SDS011;16750;49.002;9.204;2022-09-03T15:11:54;3.05;;;1.30;;
29876;SDS011;16750;49.002;9.204;2022-09-03T15:16:58;3.75;;;1.50;;
29876;SDS011;16750;49.002;9.204;2022-09-03T15:22:26;5.38;;;1.48;;
29876;SDS011;16750;49.002;9.204;2022-09-03T15:25:05;4.55;;;1.58;;
29876;SDS011;16750;49.002;9.204;2022-09-03T15:27:46;3.08;;;1.50;;
29876;SDS011;16750;49.002;9.204;2022-09-03T15:30:33;3.15;;;1.50;;
29876;SDS011;16750;49.002;9.204;2022-09-03T15:35:57;7.40;;;1.83;;
29876;SDS011;16750;49.002;9.204;2022-09-03T15:43:57;4.35;;;1.73;;
29876;SDS011;16750;49.002;9.204;2022-09-03T15:46:38;4.18;;;2.20;;
29876;SDS011;16750;49.002;9.204;2022-09-03T15:49:17;3.88;;;1.80;;
29876;SDS011;16750;49.002;9.204;2022-09-03T15:54:34;4.95;;;1.73;;
29876;SDS011;16750;49.002;9.204;2022-09-03T16:00:17;5.75;;;1.80;;
29876;SDS011;16750;49.002;9.204;2022-09-03T16:02:58;5.00;;;1.60;;
29876;SDS011;16750;49.002;9.204;2022-09-03T16:05:53;4.90;;;2.13;;
29876;SDS011;16750;49.002;9.204;2022-09-03T16:08:26;4.55;;;1.80;;
29876;SDS011;16750;49.002;9.204;2022-09-03T16:16:16;2.80;;;1.73;;
29876;SDS011;16750;49.002;9.204;2022-09-03T16:26:35;3.10;;;1.38;;
29876;SDS011;16750;49.002;9.204;2022-09-03T16:29:10;2.55;;;1.50;;
29876;SDS011;16750;49.002;9.204;2022-09-03T16:31:47;3.78;;;1.73;;
29876;SDS011;16750;49.002;9.204;2022-09-03T16:40:27;5.32;;;1.85;;
29876;SDS011;16750;49.002;9.204;2022-09-03T16:43:03;9.85;;;1.77;;
29876;SDS011;16750;49.002;9.204;2022-09-03T16:51:06;3.30;;;1.65;;
29876;SDS011;16750;49.002;9.204;2022-09-03T16:59:21;3.72;;;1.60;;
29876;SDS011;16750;49.002;9.204;2022-09-03T17:07:37;3.60;;;1.75;;
29876;SDS011;16750;49.002;9.204;2022-09-03T17:26:46;4.05;;;1.60;;
29876;SDS011;16750;49.002;9.204;2022-09-03T17:37:34;4.63;;;1.70;;
29876;SDS011;16750;49.002;9.204;2022-09-03T17:42:49;4.20;;;2.10;;
29876;SDS011;16750;49.002;9.204;2022-09-03T17:45:35;4.80;;;1.90;;
29876;SDS011;16750;49.002;9.204;2022-09-03T17:50:43;5.97;;;2.30;;
29876;SDS011;16750;49.002;9.204;2022-09-03T17:53:19;3.30;;;1.50;;
29876;SDS011;16750;49.002;9.204;2022-09-03T17:58:27;4.53;;;1.83;;
29876;SDS011;16750;49.002;9.204;2022-09-03T18:03:44;4.75;;;1.90;;
29876;SDS011;16750;49.002;9.204;2022-09-03T18:09:22;3.30;;;2.00;;
29876;SDS011;16750;49.002;9.204;2022-09-03T18:12:12;4.55;;;2.10;;
29876;SDS011;16750;49.002;9.204;2022-09-03T18:14:51;5.05;;;2.65;;
29876;SDS011;16750;49.002;9.204;2022-09-03T18:18:25;4.13;;;2.40;;
29876;SDS011;16750;49.002;9.204;2022-09-03T18:20:40;6.45;;;2.53;;
29876;SDS011;16750;49.002;9.204;2022-09-03T18:23:33;4.32;;;2.47;;
29876;SDS011;16750;49.002;9.204;2022-09-03T18:26:28;5.57;;;2.78;;
29876;SDS011;16750;49.002;9.204;2022-09-03T18:29:31;4.78;;;2.72;;
29876;SDS011;16750;49.002;9.204;2022-09-03T18:32:18;6.07;;;2.97;;
29876;SDS011;16750;49.002;9.204;2022-09-03T18:35:02;4.97;;;2.85;;
29876;SDS011;16750;49.002;9.204;2022-09-03T18:37:46;4.15;;;2.75;;
29876;SDS011;16750;49.002;9.204;2022-09-03T18:40:36;5.50;;;2.78;;
29876;SDS011;16750;49.002;9.204;2022-09-03T18:43:35;3.88;;;2.85;;
29876;SDS011;16750;49.002;9.204;2022-09-03T18:46:47;4.28;;;2.22;;
29876;SDS011;16750;49.002;9.204;2022-09-03T18:50:10;6.90;;;3.63;;
29876;SDS011;16750;49.002;9.204;2022-09-03T18:53:02;4.45;;;2.72;;
29876;SDS011;16750;49.002;9.204;2022-09-03T18:56:08;5.10;;;2.08;;
29876;SDS011;16750;49.002;9.204;2022-09-03T19:05:33;3.63;;;2.20;;
29876;SDS011;16750;49.002;9.204;2022-09-03T19:08:35;3.88;;;2.40;;
29876;SDS011;16750;49.002;9.204;2022-09-03T19:17:53;4.72;;;2.42;;
29876;SDS011;16750;49.002;9.204;2022-09-03T19:20:51;4.77;;;2.57;;
29876;SDS011;16750;49.002;9.204;2022-09-03T19:23:51;4.88;;;2.47;;
29876;SDS011;16750;49.002;9.204;2022-09-03T19:26:52;3.97;;;2.15;;
29876;SDS011;16750;49.002;9.204;2022-09-03T19:29:54;9.73;;;5.18;;
29876;SDS011;16750;49.002;9.204;2022-09-03T19:32:52;5.35;;;2.80;;
29876;SDS011;16750;49.002;9.204;2022-09-03T19:45:53;4.45;;;3.10;;
29876;SDS011;16750;49.002;9.204;2022-09-03T19:52:34;5.15;;;3.45;;
29876;SDS011;16750;49.002;9.204;2022-09-03T19:55:43;4.35;;;2.85;;
29876;SDS011;16750;49.002;9.204;2022-09-03T19:58:30;6.50;;;3.05;;
29876;SDS011;16750;49.002;9.204;2022-09-03T20:01:18;5.30;;;3.10;;
29876;SDS011;16750;49.002;9.204;2022-09-03T20:04:13;5.15;;;2.97;;
29876;SDS011;16750;49.002;9.204;2022-09-03T20:06:59;7.20;;;3.13;;
29876;SDS011;16750;49.002;9.204;2022-09-03T20:09:44;4.90;;;3.28;;
29876;SDS011;16750;49.002;9.204;2022-09-03T20:12:35;5.50;;;2.80;;
29876;SDS011;16750;49.002;9.204;2022-09-03T20:15:05;4.78;;;2.80;;
29876;SDS011;16750;49.002;9.204;2022-09-03T20:20:49;5.68;;;3.60;;
29876;SDS011;16750;49.002;9.204;2022-09-03T20:23:26;5.47;;;3.55;;
29876;SDS011;16750;49.002;9.204;2022-09-03T20:26:12;4.20;;;2.90;;
29876;SDS011;16750;49.002;9.204;2022-09-03T20:28:54;5.68;;;2.83;;
29876;SDS011;16750;49.002;9.204;2022-09-03T20:36:43;4.68;;;2.78;;
29876;SDS011;16750;49.002;9.204;2022-09-03T20:42:04;11.98;;;3.65;;
29876;SDS011;16750;49.002;9.204;2022-09-03T20:49:45;7.13;;;2.88;;
29876;SDS011;16750;49.002;9.204;2022-09-03T20:52:47;5.93;;;3.03;;
29876;SDS011;16750;49.002;9.204;2022-09-03T21:00:44;3.92;;;2.88;;
29876;SDS011;16750;49.002;9.204;2022-09-03T21:03:17;4.70;;;2.97;;
29876;SDS011;16750;49.002;9.204;2022-09-03T21:11:13;5.18;;;2.83;;
29876;SDS011;16750;49.002;9.204;2022-09-03T21:13:50;3.95;;;2.50;;
29876;SDS011;16750;49.002;9.204;2022-09-03T21:16:49;4.78;;;2.88;;
29876;SDS011;16750;49.002;9.204;2022-09-03T21:25:00;5.68;;;3.13;;
29876;SDS011;16750;49.002;9.204;2022-09-03T21:27:48;3.50;;;2.75;;
29876;SDS011;16750;49.002;9.204;2022-09-03T21:30:19;6.22;;;2.65;;
29876;SDS011;16750;49.002;9.204;2022-09-03T21:32:46;5.10;;;2.90;;
29876;SDS011;16750;49.002;9.204;2022-09-03T21:35:32;6.20;;;2.88;;
29876;SDS011;16750;49.002;9.204;2022-09-03T21:38:06;4.82;;;3.15;;
29876;SDS011;16750;49.002;9.204;2022-09-03T21:40:37;6.05;;;2.95;;
29876;SDS011;16750;49.002;9.204;2022-09-03T21:43:15;4.47;;;2.90;;
29876;SDS011;16750;49.002;9.204;2022-09-03T21:45:45;6.18;;;2.80;;
29876;SDS011;16750;49.002;9.204;2022-09-03T21:48:16;6.07;;;3.22;;
29876;SDS011;16750;49.002;9.204;2022-09-03T21:53:32;4.28;;;2.80;;